KCMX/CMX METAR and TAF weather

Enter ICAO airport designator
Station Type Date Time Source
KCMX METAR 2021/01/20 21:53 UTC NOAA

KCMX 202153Z AUTO 22017G26KT 10SM BKN036 M03/M10 A2936 RMK AO2 PK WND 24028/2143 SLP961 T10281100


Station Type Date Time Source
KCMX Decoded METAR 2021/01/20 21:53 UTC NOAA

HANCOCK HOUGHTON CTY. MEMO, MI, United States (KCMX) 47-10N 088-29W 326M
Jan 20, 2021 - 04:53 PM EST / 2021.01.20 2153 UTC
Wind: from the SW (220 degrees) at 20 MPH (17 KT) gusting to 30 MPH (26 KT):0
Visibility: 10 mile(s):0
Sky conditions: mostly cloudy
Temperature: 27.0 F (-2.8 C)
Windchill: 14 F (-10 C):1
Dew Point: 14.0 F (-10.0 C)
Relative Humidity: 57%
Pressure (altimeter): 29.36 in. Hg (994 hPa)
ob: KCMX 202153Z AUTO 22017G26KT 10SM BKN036 M03/M10 A2936 RMK AO2 PK WND 24028/2143 SLP961 T10281100
cycle: 22

Station Type Date Time Source
KCMX TAF 2021/01/20 18:42 UTC NOAA

TAF KCMX 201739Z 2018/2118 18015KT 6SM BLSN OVC080 WS015/21045KT
FM202000 20015G28KT 6SM -SHSN BLSN BKN080
FM202300 23015G30KT 6SM -SHSN BLSN BKN024
FM210300 27025G44KT 4SM BLSN BKN026

Example: see airport list